Time;durP1;ratioP1;P1;durP2;ratioP2;P2;SDS_P1;SDS_P2;PMS_P1;PMS_P2;Temp;Humidity;BMP_temperature;BMP_pressure;BME280_temperature;BME280_humidity;BME280_pressure;Samples;Min_cycle;Max_cycle;Signal;HPM_P1;HPM_P2
2023/03/29 00:01:16;;;;;;;;;;;0.40;99.90;;;;;;5019492;28;19916;-84
2023/03/29 00:03:44;;;;;;;;;;;0.30;99.90;;;;;;5037270;28;19923;-84
2023/03/29 00:06:13;;;;;;;;;;;0.30;99.90;;;;;;5036896;28;19909;-85
2023/03/29 00:08:39;;;;;;;;;;;0.30;99.90;;;;;;5036931;28;19948;-84
2023/03/29 00:11:06;;;;;;;;;;;0.30;99.90;;;;;;5019206;28;20286;-85
2023/03/29 00:13:32;;;;;;;;;;;0.30;99.90;;;;;;5019029;28;19999;-85
2023/03/29 00:15:57;;;;;;;;;;;0.40;99.90;;;;;;5019221;28;19948;-85
2023/03/29 00:18:23;;;;;;;;;;;0.30;99.90;;;;;;5036739;28;19958;-85
2023/03/29 00:20:55;;;;;;;;;;;0.40;99.90;;;;;;5002532;28;19971;-84
2023/03/29 00:23:21;;;;;;;;;;;0.40;99.90;;;;;;5019019;28;19978;-84
2023/03/29 00:25:47;;;;;;;;;;;0.40;99.90;;;;;;5036580;28;20408;-83
2023/03/29 00:28:13;;;;;;;;;;;0.40;99.90;;;;;;5018814;28;19909;-85
2023/03/29 00:30:39;;;;;;;;;;;0.30;99.90;;;;;;5018997;28;20297;-84
2023/03/29 00:33:06;;;;;;;;;;;0.30;99.90;;;;;;5018753;28;19915;-84
2023/03/29 00:35:31;;;;;;;;;;;0.30;99.90;;;;;;5018667;28;20328;-85
2023/03/29 00:37:57;;;;;;;;;;;0.30;99.90;;;;;;5002444;28;19920;-85
2023/03/29 00:40:22;;;;;;;;;;;0.30;99.90;;;;;;5025679;28;20030;-84
2023/03/29 00:42:48;;;;;;;;;;;0.30;99.90;;;;;;5056231;28;19967;-84
2023/03/29 00:45:21;;;;;;;;;;;0.30;99.90;;;;;;5038493;28;19944;-84
2023/03/29 00:47:49;;;;;;;;;;;0.30;99.90;;;;;;5055597;28;20358;-84
2023/03/29 00:50:17;;;;;;;;;;;0.30;99.90;;;;;;5056082;28;19995;-85
2023/03/29 00:52:45;;;;;;;;;;;0.20;99.90;;;;;;5055990;28;19916;-84
2023/03/29 00:55:12;;;;;;;;;;;0.20;99.90;;;;;;5038170;28;19909;-84
2023/03/29 00:57:39;;;;;;;;;;;0.20;99.90;;;;;;5056005;28;19908;-84
2023/03/29 01:00:08;;;;;;;;;;;0.20;99.90;;;;;;5038098;28;19909;-84
2023/03/29 01:02:38;;;;;;;;;;;0.20;99.90;;;;;;5038301;28;20296;-84
2023/03/29 01:05:13;;;;;;;;;;;0.20;99.90;;;;;;5055860;28;20288;-85
2023/03/29 01:07:42;;;;;;;;;;;0.20;99.90;;;;;;5037950;28;20003;-84
2023/03/29 01:10:13;;;;;;;;;;;0.20;99.90;;;;;;5055288;28;19916;-84
2023/03/29 01:12:42;;;;;;;;;;;0.20;99.90;;;;;;5055569;28;19920;-84
2023/03/29 01:15:09;;;;;;;;;;;0.10;99.90;;;;;;5038084;28;19909;-84
2023/03/29 01:17:34;;;;;;;;;;;0.20;99.90;;;;;;5037805;28;20357;-84
2023/03/29 01:20:09;;;;;;;;;;;0.20;99.90;;;;;;5038035;28;19916;-84
2023/03/29 01:23:07;;;;;;;;;;;0.20;99.90;;;;;;5055847;28;19916;-84
2023/03/29 01:25:33;;;;;;;;;;;0.30;99.90;;;;;;5011663;28;20008;-84
2023/03/29 01:28:01;;;;;;;;;;;0.30;99.90;;;;;;5055313;28;19982;-84
2023/03/29 01:30:39;;;;;;;;;;;0.40;99.90;;;;;;5055315;28;19916;-84
2023/03/29 01:33:08;;;;;;;;;;;0.40;99.90;;;;;;5037342;28;19947;-84
2023/03/29 01:35:42;;;;;;;;;;;0.40;99.90;;;;;;5037385;28;19952;-84
2023/03/29 01:38:22;;;;;;;;;;;0.40;99.90;;;;;;5037319;28;19948;-84
2023/03/29 01:40:47;;;;;;;;;;;0.40;99.90;;;;;;5055272;28;19959;-84
2023/03/29 01:43:19;;;;;;;;;;;0.50;99.90;;;;;;5037461;28;19948;-84
2023/03/29 01:45:46;;;;;;;;;;;0.50;99.90;;;;;;5037240;28;19916;-84
2023/03/29 01:48:21;;;;;;;;;;;0.50;99.90;;;;;;5037207;28;20289;-85
2023/03/29 01:50:52;;;;;;;;;;;0.50;99.90;;;;;;5054908;28;20327;-84
2023/03/29 01:53:23;;;;;;;;;;;0.50;99.90;;;;;;5054951;28;19919;-84
2023/03/29 01:55:54;;;;;;;;;;;0.60;99.90;;;;;;5055006;28;19913;-84
2023/03/29 01:58:21;;;;;;;;;;;0.60;99.90;;;;;;5054769;28;19909;-84
2023/03/29 02:00:49;;;;;;;;;;;0.60;99.90;;;;;;5054698;28;20369;-85
2023/03/29 02:03:16;;;;;;;;;;;0.60;99.90;;;;;;5054682;28;19916;-85
2023/03/29 02:05:42;;;;;;;;;;;0.60;99.90;;;;;;5020507;28;19958;-85
2023/03/29 02:08:09;;;;;;;;;;;0.60;99.90;;;;;;5036981;28;19909;-84
2023/03/29 02:10:35;;;;;;;;;;;0.60;99.90;;;;;;5054618;28;19915;-84
2023/03/29 02:13:01;;;;;;;;;;;0.60;99.90;;;;;;5020300;28;20040;-84
2023/03/29 02:15:26;;;;;;;;;;;0.60;99.90;;;;;;5054660;28;20395;-84
2023/03/29 02:17:52;;;;;;;;;;;0.60;99.90;;;;;;5036741;28;19945;-85
2023/03/29 02:20:21;;;;;;;;;;;0.60;99.90;;;;;;5036888;28;19939;-85
2023/03/29 02:22:50;;;;;;;;;;;0.50;99.90;;;;;;5036385;28;19956;-84
2023/03/29 02:25:18;;;;;;;;;;;0.50;99.90;;;;;;5054467;28;19917;-84
2023/03/29 02:27:44;;;;;;;;;;;0.40;99.90;;;;;;5036937;28;19961;-85
2023/03/29 02:30:12;;;;;;;;;;;0.40;99.90;;;;;;5054346;28;19909;-85
2023/03/29 02:32:40;;;;;;;;;;;0.40;99.90;;;;;;5036458;28;19909;-84
2023/03/29 02:35:11;;;;;;;;;;;0.40;99.90;;;;;;5036258;28;19913;-84
2023/03/29 02:37:40;;;;;;;;;;;0.30;99.90;;;;;;5036492;28;20365;-84
2023/03/29 02:40:06;;;;;;;;;;;0.30;99.90;;;;;;5054541;28;19916;-84
2023/03/29 02:42:33;;;;;;;;;;;0.30;99.90;;;;;;5054159;28;19913;-84
2023/03/29 02:44:59;;;;;;;;;;;0.30;99.90;;;;;;5036232;28;20014;-83
2023/03/29 02:47:30;;;;;;;;;;;0.30;99.90;;;;;;5036357;28;19913;-84
2023/03/29 02:49:56;;;;;;;;;;;0.30;99.90;;;;;;5054131;28;19956;-84
2023/03/29 02:52:24;;;;;;;;;;;0.40;99.90;;;;;;5036288;28;19913;-84
2023/03/29 02:54:53;;;;;;;;;;;0.30;99.90;;;;;;5036181;28;19913;-84
2023/03/29 02:57:25;;;;;;;;;;;0.40;99.90;;;;;;5054117;28;19912;-85
2023/03/29 02:59:51;;;;;;;;;;;0.40;99.90;;;;;;5053993;28;19909;-84
2023/03/29 03:02:17;;;;;;;;;;;0.30;99.90;;;;;;5036229;28;19913;-84
2023/03/29 03:04:43;;;;;;;;;;;0.30;99.90;;;;;;5036523;28;19923;-84
2023/03/29 03:07:09;;;;;;;;;;;0.40;99.90;;;;;;5019715;28;19952;-84
2023/03/29 03:09:34;;;;;;;;;;;0.40;99.90;;;;;;5019644;28;20053;-84
2023/03/29 03:12:00;;;;;;;;;;;0.40;99.90;;;;;;5035594;28;19963;-85
2023/03/29 03:14:27;;;;;;;;;;;0.40;99.90;;;;;;5019931;28;19913;-84
2023/03/29 03:16:53;;;;;;;;;;;0.40;99.90;;;;;;5019418;28;20012;-85
2023/03/29 03:19:20;;;;;;;;;;;0.30;99.90;;;;;;5035785;28;20077;-84
2023/03/29 03:21:45;;;;;;;;;;;0.30;99.90;;;;;;5035704;28;19920;-84
2023/03/29 03:24:11;;;;;;;;;;;0.30;99.90;;;;;;5053403;28;19913;-84
2023/03/29 03:26:37;;;;;;;;;;;0.30;99.90;;;;;;5035905;28;19920;-83
2023/03/29 03:29:03;;;;;;;;;;;0.30;99.90;;;;;;5055189;28;19917;-83
2023/03/29 03:31:29;;;;;;;;;;;0.30;99.90;;;;;;5036190;28;19963;-83
2023/03/29 03:33:55;;;;;;;;;;;0.30;99.90;;;;;;5054789;28;19908;-83
2023/03/29 03:36:24;;;;;;;;;;;0.30;99.90;;;;;;5023614;28;19927;-83
2023/03/29 03:38:51;;;;;;;;;;;0.30;99.90;;;;;;5040061;28;20383;-83
2023/03/29 03:41:17;;;;;;;;;;;0.30;99.90;;;;;;5039822;28;19909;-84
2023/03/29 03:43:47;;;;;;;;;;;0.30;99.90;;;;;;5023020;28;19967;-83
2023/03/29 03:46:16;;;;;;;;;;;0.30;99.90;;;;;;5039678;28;20380;-83
2023/03/29 03:48:41;;;;;;;;;;;0.30;99.90;;;;;;5023454;28;19913;-83
2023/03/29 03:51:07;;;;;;;;;;;0.30;99.90;;;;;;5039479;28;19935;-83
2023/03/29 03:53:33;;;;;;;;;;;0.30;99.90;;;;;;5056614;28;19913;-83
2023/03/29 03:56:00;;;;;;;;;;;0.40;99.90;;;;;;5039554;28;19923;-83
2023/03/29 03:58:27;;;;;;;;;;;0.40;99.90;;;;;;5040272;28;19912;-83
2023/03/29 04:00:53;;;;;;;;;;;0.40;99.90;;;;;;5039721;28;19913;-83
2023/03/29 04:03:19;;;;;;;;;;;0.40;99.90;;;;;;5039329;28;19919;-83
2023/03/29 04:05:45;;;;;;;;;;;0.40;99.90;;;;;;5038856;28;19908;-82
2023/03/29 04:08:11;;;;;;;;;;;0.40;99.90;;;;;;5039290;28;19915;-84
2023/03/29 04:10:38;;;;;;;;;;;0.40;99.90;;;;;;5057275;28;19932;-84
2023/03/29 04:13:04;;;;;;;;;;;0.40;99.90;;;;;;5039209;28;20379;-84
2023/03/29 04:15:30;;;;;;;;;;;0.30;99.90;;;;;;5039183;28;19913;-84
2023/03/29 04:17:56;;;;;;;;;;;0.20;99.90;;;;;;5039426;28;19916;-84
2023/03/29 04:20:23;;;;;;;;;;;0.20;99.90;;;;;;5057681;28;19958;-84
2023/03/29 04:22:49;;;;;;;;;;;0.10;99.90;;;;;;5057195;28;20007;-83
2023/03/29 04:25:15;;;;;;;;;;;0.10;99.90;;;;;;5022316;28;19917;-84
2023/03/29 04:27:41;;;;;;;;;;;0.00;99.90;;;;;;5056702;28;19920;-84
2023/03/29 04:30:06;;;;;;;;;;;0.00;99.90;;;;;;5057019;28;20332;-83
2023/03/29 04:32:32;;;;;;;;;;;0.00;99.90;;;;;;5038548;28;19909;-83
2023/03/29 04:34:58;;;;;;;;;;;0.00;99.90;;;;;;5021743;28;19924;-84
2023/03/29 04:37:24;;;;;;;;;;;0.00;99.90;;;;;;5038415;28;19917;-84
2023/03/29 04:39:51;;;;;;;;;;;0.00;99.90;;;;;;5022145;28;19960;-84
2023/03/29 04:42:18;;;;;;;;;;;0.00;99.90;;;;;;5038165;28;19912;-84
2023/03/29 04:44:43;;;;;;;;;;;0.00;99.90;;;;;;5022787;28;20384;-83
2023/03/29 04:47:11;;;;;;;;;;;0.00;99.90;;;;;;5057363;28;19926;-83
2023/03/29 04:49:37;;;;;;;;;;;0.00;99.90;;;;;;5039484;28;19970;-82
2023/03/29 04:52:03;;;;;;;;;;;0.00;99.90;;;;;;5056796;28;19970;-82
2023/03/29 04:54:29;;;;;;;;;;;0.10;99.90;;;;;;5040456;28;20425;-82
2023/03/29 04:56:55;;;;;;;;;;;0.10;99.90;;;;;;5058233;28;19913;-82
2023/03/29 04:59:21;;;;;;;;;;;0.10;99.90;;;;;;5023767;28;19920;-82
2023/03/29 05:01:46;;;;;;;;;;;0.20;99.90;;;;;;5058095;28;19909;-83
2023/03/29 05:04:12;;;;;;;;;;;0.20;99.90;;;;;;5040379;28;20289;-83
2023/03/29 05:06:38;;;;;;;;;;;0.20;99.90;;;;;;5057689;28;19909;-83
2023/03/29 05:09:05;;;;;;;;;;;0.30;99.90;;;;;;5056456;28;19909;-83
2023/03/29 05:11:31;;;;;;;;;;;0.20;99.90;;;;;;5056277;28;19955;-83
2023/03/29 05:14:01;;;;;;;;;;;0.30;99.90;;;;;;5057762;28;19909;-83
2023/03/29 05:16:28;;;;;;;;;;;0.30;99.90;;;;;;5057661;28;19913;-83
2023/03/29 05:18:57;;;;;;;;;;;0.30;99.90;;;;;;5023199;28;19920;-82
2023/03/29 05:21:24;;;;;;;;;;;0.30;99.90;;;;;;5039211;28;19909;-83
2023/03/29 05:23:50;;;;;;;;;;;0.30;99.90;;;;;;5057552;28;19913;-82
2023/03/29 05:26:16;;;;;;;;;;;0.30;99.90;;;;;;5040109;28;20296;-82
2023/03/29 05:28:42;;;;;;;;;;;0.40;99.90;;;;;;5022737;28;19959;-82
2023/03/29 05:31:09;;;;;;;;;;;0.40;99.90;;;;;;5039079;28;19913;-82
2023/03/29 05:33:35;;;;;;;;;;;0.40;99.90;;;;;;5056848;28;19908;-82
2023/03/29 05:36:05;;;;;;;;;;;0.50;99.90;;;;;;5056248;28;19917;-83
2023/03/29 05:38:33;;;;;;;;;;;0.50;99.90;;;;;;5038702;28;19915;-83
2023/03/29 05:40:59;;;;;;;;;;;0.50;99.90;;;;;;5022866;28;19916;-83
2023/03/29 05:43:25;;;;;;;;;;;0.60;99.90;;;;;;5038656;28;19913;-83
2023/03/29 05:45:52;;;;;;;;;;;0.60;99.90;;;;;;5056308;28;19909;-82
2023/03/29 05:48:17;;;;;;;;;;;0.60;99.90;;;;;;5056722;28;19909;-82
2023/03/29 05:50:50;;;;;;;;;;;0.70;99.90;;;;;;5060631;28;19913;-82
2023/03/29 05:53:16;;;;;;;;;;;0.60;99.90;;;;;;5057768;28;20433;-82
2023/03/29 05:55:42;;;;;;;;;;;0.60;99.90;;;;;;5021660;28;19913;-82
2023/03/29 05:58:09;;;;;;;;;;;0.60;99.90;;;;;;5055452;28;20376;-83
2023/03/29 06:00:35;;;;;;;;;;;0.60;99.90;;;;;;5055757;28;19909;-82
2023/03/29 06:03:01;;;;;;;;;;;0.60;99.90;;;;;;5022021;28;20353;-82
2023/03/29 06:05:27;;;;;;;;;;;0.60;99.90;;;;;;5021658;28;19917;-82
2023/03/29 06:07:53;;;;;;;;;;;0.60;99.90;;;;;;5038298;28;20292;-83
2023/03/29 06:10:19;;;;;;;;;;;0.70;99.90;;;;;;5037787;28;19975;-82
2023/03/29 06:12:45;;;;;;;;;;;0.70;99.90;;;;;;5037975;28;19916;-82
2023/03/29 06:15:12;;;;;;;;;;;0.70;99.90;;;;;;5055895;28;20351;-82
2023/03/29 06:17:38;;;;;;;;;;;0.70;99.90;;;;;;5037898;28;20018;-82
2023/03/29 06:20:10;;;;;;;;;;;0.70;99.90;;;;;;5055547;28;20390;-83
2023/03/29 06:22:36;;;;;;;;;;;0.70;99.90;;;;;;5037625;28;19920;-82
2023/03/29 06:25:03;;;;;;;;;;;0.70;99.90;;;;;;5055339;28;19995;-82
2023/03/29 06:27:28;;;;;;;;;;;0.80;99.90;;;;;;5055685;28;19908;-82
2023/03/29 06:29:54;;;;;;;;;;;0.80;99.90;;;;;;5056078;28;19913;-82
2023/03/29 06:32:19;;;;;;;;;;;0.80;99.90;;;;;;5037547;28;19923;-82
2023/03/29 06:34:45;;;;;;;;;;;0.90;99.90;;;;;;5037701;28;19912;-82
2023/03/29 06:37:11;;;;;;;;;;;1.00;99.90;;;;;;5037871;28;20012;-82
2023/03/29 06:39:37;;;;;;;;;;;1.00;99.90;;;;;;5055582;28;19919;-82
2023/03/29 06:42:04;;;;;;;;;;;1.00;99.90;;;;;;5021236;28;19912;-82
2023/03/29 06:44:30;;;;;;;;;;;1.10;99.90;;;;;;5055681;28;19917;-82
2023/03/29 06:46:55;;;;;;;;;;;1.10;99.90;;;;;;5037732;28;19962;-82
2023/03/29 06:49:21;;;;;;;;;;;1.10;99.90;;;;;;5037633;28;19913;-83
2023/03/29 06:51:47;;;;;;;;;;;1.10;99.90;;;;;;5037696;28;19913;-82
2023/03/29 06:54:13;;;;;;;;;;;1.10;99.90;;;;;;5055757;28;19919;-82
2023/03/29 06:56:39;;;;;;;;;;;1.10;99.90;;;;;;5037426;28;19917;-82
2023/03/29 06:59:04;;;;;;;;;;;1.20;99.90;;;;;;5038283;28;20365;-82
2023/03/29 07:01:30;;;;;;;;;;;1.20;99.90;;;;;;5020823;28;20019;-82
2023/03/29 07:03:56;;;;;;;;;;;1.20;99.90;;;;;;5037128;28;20430;-82
2023/03/29 07:06:22;;;;;;;;;;;1.30;99.90;;;;;;5037365;28;20426;-82
2023/03/29 07:08:49;;;;;;;;;;;1.20;99.90;;;;;;5037634;28;19913;-82
2023/03/29 07:11:16;;;;;;;;;;;1.30;99.90;;;;;;5059064;28;20365;-82
2023/03/29 07:13:42;;;;;;;;;;;1.30;99.90;;;;;;5041008;28;19913;-82
2023/03/29 07:16:11;;;;;;;;;;;1.30;99.90;;;;;;5059385;28;19999;-82
2023/03/29 07:18:38;;;;;;;;;;;1.30;99.90;;;;;;5041753;28;19913;-82
2023/03/29 07:21:04;;;;;;;;;;;1.40;99.90;;;;;;5058842;28;19909;-82
2023/03/29 07:23:30;;;;;;;;;;;1.40;99.90;;;;;;5041073;28;20430;-82
2023/03/29 07:25:56;;;;;;;;;;;1.40;99.90;;;;;;5041245;28;19917;-83
2023/03/29 07:28:21;;;;;;;;;;;1.40;99.90;;;;;;5041017;28;19913;-82
2023/03/29 07:30:48;;;;;;;;;;;1.50;99.90;;;;;;5024480;28;19913;-82
2023/03/29 07:33:14;;;;;;;;;;;1.50;99.90;;;;;;5040986;28;19923;-82
2023/03/29 07:35:42;;;;;;;;;;;1.50;99.90;;;;;;5058612;28;19942;-82
2023/03/29 07:38:07;;;;;;;;;;;1.50;99.90;;;;;;5058765;28;19913;-82
2023/03/29 07:40:33;;;;;;;;;;;1.50;99.90;;;;;;5058368;28;19912;-82
2023/03/29 07:42:59;;;;;;;;;;;1.50;99.90;;;;;;5057984;28;19916;-82
2023/03/29 07:45:27;;;;;;;;;;;1.50;99.90;;;;;;5058175;28;19913;-82
2023/03/29 07:47:54;;;;;;;;;;;1.60;99.90;;;;;;5040092;28;19909;-82
2023/03/29 07:50:19;;;;;;;;;;;1.60;99.90;;;;;;5058557;28;19909;-82
2023/03/29 07:52:45;;;;;;;;;;;1.70;99.90;;;;;;5040153;28;19908;-82
2023/03/29 07:55:11;;;;;;;;;;;1.70;99.90;;;;;;5040447;28;19971;-82
2023/03/29 07:57:37;;;;;;;;;;;1.70;99.90;;;;;;5039976;28;19908;-82
2023/03/29 08:00:10;;;;;;;;;;;1.70;99.90;;;;;;5058009;28;19920;-82
2023/03/29 08:02:36;;;;;;;;;;;1.80;99.90;;;;;;5057869;28;19912;-82
2023/03/29 08:05:01;;;;;;;;;;;1.80;99.90;;;;;;5039991;28;19921;-82
2023/03/29 08:07:27;;;;;;;;;;;1.80;99.90;;;;;;5040108;28;19916;-82
2023/03/29 08:09:52;;;;;;;;;;;1.80;99.90;;;;;;5057856;28;20003;-82
2023/03/29 08:12:18;;;;;;;;;;;1.80;99.90;;;;;;5057462;28;19962;-82
2023/03/29 08:14:43;;;;;;;;;;;1.80;99.90;;;;;;5039767;28;20333;-82
2023/03/29 08:17:09;;;;;;;;;;;1.90;99.90;;;;;;5039980;28;19916;-82
2023/03/29 08:19:35;;;;;;;;;;;1.90;99.90;;;;;;5039562;28;19909;-82
2023/03/29 08:22:00;;;;;;;;;;;1.90;99.90;;;;;;5023288;28;19913;-82
2023/03/29 08:24:26;;;;;;;;;;;2.00;99.90;;;;;;5039748;28;19917;-82
2023/03/29 08:26:52;;;;;;;;;;;2.00;99.90;;;;;;5039513;28;19909;-82
2023/03/29 08:29:17;;;;;;;;;;;2.10;99.90;;;;;;5057629;28;20289;-82
2023/03/29 08:31:43;;;;;;;;;;;2.10;99.90;;;;;;5057703;28;19908;-81
2023/03/29 08:34:08;;;;;;;;;;;2.10;99.90;;;;;;5057542;28;20002;-82
2023/03/29 08:36:34;;;;;;;;;;;2.20;99.90;;;;;;5022932;28;19921;-81
2023/03/29 08:39:01;;;;;;;;;;;2.20;99.90;;;;;;5057621;28;20289;-82
2023/03/29 08:41:33;;;;;;;;;;;2.20;99.90;;;;;;5023381;28;19975;-82
2023/03/29 08:44:09;;;;;;;;;;;2.30;99.90;;;;;;5057116;28;19916;-82
2023/03/29 08:46:41;;;;;;;;;;;2.30;99.90;;;;;;5057160;28;20319;-82
2023/03/29 08:49:08;;;;;;;;;;;2.30;99.90;;;;;;5040106;28;19908;-81
2023/03/29 08:51:39;;;;;;;;;;;2.40;99.90;;;;;;5057446;28;19995;-81
2023/03/29 08:54:07;;;;;;;;;;;2.30;99.90;;;;;;5042920;28;19959;-82
2023/03/29 08:56:34;;;;;;;;;;;2.30;99.90;;;;;;5041820;28;20381;-81
2023/03/29 08:59:00;;;;;;;;;;;2.30;99.90;;;;;;5057026;28;19920;-81
2023/03/29 09:01:29;;;;;;;;;;;2.30;99.90;;;;;;5056052;28;20281;-81
2023/03/29 09:03:58;;;;;;;;;;;2.30;99.90;;;;;;5056176;28;20365;-81
2023/03/29 09:06:23;;;;;;;;;;;2.20;99.90;;;;;;5055937;28;19908;-81
2023/03/29 09:08:50;;;;;;;;;;;2.20;99.90;;;;;;5056075;28;19912;-81
2023/03/29 09:11:34;;;;;;;;;;;2.30;99.90;;;;;;5055952;28;19932;-81
2023/03/29 09:14:06;;;;;;;;;;;2.30;99.90;;;;;;5038080;28;20292;-81
2023/03/29 09:16:35;;;;;;;;;;;2.30;99.90;;;;;;5055691;28;19909;-81
2023/03/29 09:19:03;;;;;;;;;;;2.30;99.90;;;;;;5037779;28;19909;-81
2023/03/29 09:21:42;;;;;;;;;;;2.40;99.90;;;;;;5055732;28;19913;-81
2023/03/29 09:24:27;;;;;;;;;;;2.40;99.90;;;;;;5055900;28;19988;-81
2023/03/29 09:27:02;;;;;;;;;;;2.40;99.90;;;;;;5055562;28;19915;-81
2023/03/29 09:29:30;;;;;;;;;;;2.40;99.90;;;;;;5055888;28;20008;-81
2023/03/29 09:31:56;;;;;;;;;;;2.50;99.90;;;;;;5054837;28;19908;-81
2023/03/29 09:34:27;;;;;;;;;;;2.50;99.90;;;;;;5055438;28;20399;-81
2023/03/29 09:36:55;;;;;;;;;;;2.50;99.90;;;;;;5037617;28;19917;-81
2023/03/29 09:39:22;;;;;;;;;;;2.60;99.90;;;;;;5037653;28;19948;-81
2023/03/29 09:41:57;;;;;;;;;;;2.60;99.90;;;;;;5037678;28;20293;-81
2023/03/29 09:44:24;;;;;;;;;;;2.60;99.90;;;;;;5055399;28;19913;-81
2023/03/29 09:46:52;;;;;;;;;;;2.60;99.90;;;;;;5055504;28;19955;-81
2023/03/29 09:49:38;;;;;;;;;;;2.60;99.90;;;;;;5037444;28;19916;-81
2023/03/29 09:52:07;;;;;;;;;;;2.70;99.90;;;;;;5036509;28;20356;-81
2023/03/29 09:54:32;;;;;;;;;;;2.70;99.90;;;;;;5055576;28;19955;-81
2023/03/29 09:56:58;;;;;;;;;;;2.60;99.90;;;;;;5037304;28;20377;-81
2023/03/29 09:59:24;;;;;;;;;;;2.70;99.90;;;;;;5055278;28;19909;-81
2023/03/29 10:01:50;;;;;;;;;;;2.70;99.90;;;;;;5055591;28;19963;-81
2023/03/29 10:04:16;;;;;;;;;;;2.80;99.90;;;;;;5020861;28;19956;-81
2023/03/29 10:06:51;;;;;;;;;;;2.90;99.90;;;;;;5020848;28;20293;-81
2023/03/29 10:09:21;;;;;;;;;;;2.90;99.90;;;;;;5037656;28;19917;-81
2023/03/29 10:11:50;;;;;;;;;;;2.90;99.90;;;;;;5036784;28;20269;-81
2023/03/29 10:14:17;;;;;;;;;;;3.00;99.90;;;;;;5054905;28;19909;-81
2023/03/29 10:16:44;;;;;;;;;;;3.00;99.90;;;;;;5055802;28;19951;-81
2023/03/29 10:19:29;;;;;;;;;;;3.00;99.90;;;;;;5054718;28;20369;-81
2023/03/29 10:21:57;;;;;;;;;;;3.10;99.90;;;;;;5036713;28;19916;-81
2023/03/29 10:24:24;;;;;;;;;;;3.10;99.90;;;;;;5036591;28;19919;-81
2023/03/29 10:26:54;;;;;;;;;;;3.10;99.90;;;;;;5054750;28;19952;-81
2023/03/29 10:29:20;;;;;;;;;;;3.20;99.90;;;;;;5054811;28;19913;-81
2023/03/29 10:31:46;;;;;;;;;;;3.30;99.90;;;;;;5036685;28;19909;-81
2023/03/29 10:34:14;;;;;;;;;;;3.30;99.90;;;;;;5036827;28;19920;-81
2023/03/29 10:36:43;;;;;;;;;;;3.30;99.90;;;;;;5036783;28;19921;-81
2023/03/29 10:39:09;;;;;;;;;;;3.40;99.90;;;;;;5054591;28;19909;-81
2023/03/29 10:41:35;;;;;;;;;;;3.40;99.90;;;;;;5054619;28;20339;-81
2023/03/29 10:44:00;;;;;;;;;;;3.40;99.90;;;;;;5037251;28;19963;-81
2023/03/29 10:46:26;;;;;;;;;;;3.40;99.90;;;;;;5054488;28;20308;-81
2023/03/29 10:48:56;;;;;;;;;;;3.40;99.90;;;;;;5036843;28;19916;-81
2023/03/29 10:51:23;;;;;;;;;;;3.40;99.90;;;;;;5054346;28;19908;-81
2023/03/29 10:53:49;;;;;;;;;;;3.50;99.90;;;;;;5054629;28;20297;-81
2023/03/29 10:56:23;;;;;;;;;;;3.50;99.90;;;;;;5036729;28;19916;-81
2023/03/29 10:58:55;;;;;;;;;;;3.50;99.90;;;;;;5053688;28;19958;-81
2023/03/29 11:01:44;;;;;;;;;;;3.60;99.90;;;;;;5055822;28;19954;-81
2023/03/29 11:04:16;;;;;;;;;;;3.70;99.90;;;;;;5039063;28;20019;-81
2023/03/29 11:06:49;;;;;;;;;;;3.90;99.90;;;;;;5055073;28;20352;-82
2023/03/29 11:09:21;;;;;;;;;;;4.00;99.90;;;;;;5037987;28;20004;-81
2023/03/29 11:11:52;;;;;;;;;;;4.00;99.90;;;;;;5055129;28;19909;-81
2023/03/29 11:14:36;;;;;;;;;;;4.20;99.90;;;;;;5054858;28;19908;-81
2023/03/29 11:17:10;;;;;;;;;;;4.20;99.90;;;;;;5037018;28;19916;-80
2023/03/29 11:19:41;;;;;;;;;;;4.30;99.90;;;;;;5054931;28;19931;-81
2023/03/29 11:22:07;;;;;;;;;;;4.40;99.90;;;;;;5036810;28;19909;-82
2023/03/29 11:24:33;;;;;;;;;;;4.40;99.90;;;;;;5053711;28;19920;-81
2023/03/29 11:27:15;;;;;;;;;;;4.40;99.90;;;;;;5053831;28;19970;-81
2023/03/29 11:30:05;;;;;;;;;;;4.50;99.90;;;;;;5053986;28;20051;-81
2023/03/29 11:32:39;;;;;;;;;;;4.50;99.90;;;;;;5043669;28;19909;-82
2023/03/29 11:35:08;;;;;;;;;;;4.60;99.90;;;;;;5053584;28;19920;-82
2023/03/29 11:37:57;;;;;;;;;;;4.60;99.90;;;;;;5035845;28;20361;-82
2023/03/29 11:40:41;;;;;;;;;;;4.70;99.90;;;;;;4999619;28;19909;-82
2023/03/29 11:43:14;;;;;;;;;;;4.60;99.90;;;;;;5035867;28;19916;-82
2023/03/29 11:45:50;;;;;;;;;;;4.60;99.90;;;;;;5035982;28;19924;-83
2023/03/29 11:48:20;;;;;;;;;;;4.50;99.90;;;;;;5053686;28;19944;-82
2023/03/29 11:50:55;;;;;;;;;;;4.40;99.90;;;;;;5053632;28;19915;-83
2023/03/29 11:53:23;;;;;;;;;;;4.40;99.90;;;;;;5035878;28;19909;-83
2023/03/29 11:55:50;;;;;;;;;;;4.50;99.90;;;;;;5055701;28;19916;-83
2023/03/29 11:58:21;;;;;;;;;;;4.60;99.90;;;;;;5039777;28;20357;-83
2023/03/29 12:00:54;;;;;;;;;;;4.70;99.90;;;;;;5039406;28;20007;-84
2023/03/29 12:03:35;;;;;;;;;;;4.80;99.90;;;;;;5039264;28;19948;-84
2023/03/29 12:06:11;;;;;;;;;;;5.00;99.90;;;;;;5057071;28;19909;-84
2023/03/29 12:08:39;;;;;;;;;;;5.00;99.90;;;;;;5039458;28;19913;-84
2023/03/29 12:11:23;;;;;;;;;;;5.20;99.90;;;;;;5058361;28;19909;-84
2023/03/29 12:13:52;;;;;;;;;;;5.30;99.90;;;;;;5056950;28;19912;-84
2023/03/29 12:16:34;;;;;;;;;;;5.30;99.90;;;;;;5056946;28;19996;-84
2023/03/29 12:19:18;;;;;;;;;;;5.30;99.90;;;;;;5057482;28;19912;-84
2023/03/29 12:21:45;;;;;;;;;;;5.50;99.90;;;;;;5056706;28;19909;-84
2023/03/29 12:24:12;;;;;;;;;;;5.60;99.90;;;;;;5038974;28;19913;-83
2023/03/29 12:26:39;;;;;;;;;;;5.70;99.90;;;;;;5038825;28;19932;-84
2023/03/29 12:29:19;;;;;;;;;;;5.70;99.90;;;;;;5038950;28;20290;-84
2023/03/29 12:31:52;;;;;;;;;;;5.80;99.90;;;;;;5038819;28;19962;-84
2023/03/29 12:34:51;;;;;;;;;;;6.00;99.90;;;;;;5056167;28;20442;-83
2023/03/29 12:37:26;;;;;;;;;;;6.00;99.90;;;;;;4995606;28;19920;-84
2023/03/29 12:39:52;;;;;;;;;;;5.90;99.90;;;;;;5038497;28;19909;-85
2023/03/29 12:42:19;;;;;;;;;;;5.90;99.90;;;;;;5056608;28;20353;-85
2023/03/29 12:45:05;;;;;;;;;;;5.90;99.90;;;;;;5056123;28;19920;-84
2023/03/29 12:47:32;;;;;;;;;;;5.90;99.90;;;;;;5038033;28;19909;-85
2023/03/29 12:49:59;;;;;;;;;;;5.90;99.90;;;;;;5038341;28;19909;-85
2023/03/29 12:52:35;;;;;;;;;;;5.90;99.90;;;;;;5038363;28;19909;-85
2023/03/29 12:55:16;;;;;;;;;;;5.80;99.90;;;;;;5056327;28;19915;-85
2023/03/29 12:57:43;;;;;;;;;;;5.90;99.90;;;;;;5038102;28;19909;-85
2023/03/29 13:00:11;;;;;;;;;;;6.10;99.90;;;;;;5055925;28;19909;-85
2023/03/29 13:02:38;;;;;;;;;;;6.20;99.90;;;;;;5037990;28;20422;-85
2023/03/29 13:05:04;;;;;;;;;;;6.20;99.90;;;;;;5021450;28;19917;-85
2023/03/29 13:07:31;;;;;;;;;;;6.20;99.90;;;;;;5037036;28;20050;-85
2023/03/29 13:09:58;;;;;;;;;;;6.40;99.90;;;;;;5037864;28;19909;-85
2023/03/29 13:12:27;;;;;;;;;;;6.40;99.90;;;;;;5037652;28;20357;-85
2023/03/29 13:14:57;;;;;;;;;;;6.60;99.90;;;;;;5037809;28;19915;-84
2023/03/29 13:17:25;;;;;;;;;;;6.60;99.90;;;;;;5055592;28;19955;-85
2023/03/29 13:19:50;;;;;;;;;;;6.80;99.90;;;;;;5037567;28;19909;-85
2023/03/29 13:22:35;;;;;;;;;;;7.10;99.90;;;;;;5037454;28;19909;-85
2023/03/29 13:25:01;;;;;;;;;;;7.20;99.90;;;;;;5037506;28;19919;-85
2023/03/29 13:27:50;;;;;;;;;;;7.20;99.90;;;;;;5037532;28;19909;-85
2023/03/29 13:30:25;;;;;;;;;;;7.30;99.90;;;;;;5037507;28;19909;-85
2023/03/29 13:32:53;;;;;;;;;;;7.40;99.90;;;;;;5037438;28;19999;-86
2023/03/29 13:35:25;;;;;;;;;;;7.60;99.90;;;;;;5037051;28;19925;-85
2023/03/29 13:37:52;;;;;;;;;;;7.80;99.90;;;;;;5055293;28;19916;-85
2023/03/29 13:40:25;;;;;;;;;;;8.00;99.90;;;;;;5028009;28;19913;-85
2023/03/29 13:42:58;;;;;;;;;;;8.20;99.90;;;;;;5023770;28;19951;-86
2023/03/29 13:45:26;;;;;;;;;;;8.20;99.90;;;;;;5015370;28;20369;-86
2023/03/29 13:48:10;;;;;;;;;;;8.20;99.90;;;;;;5012103;28;19999;-86
2023/03/29 13:50:37;;;;;;;;;;;8.20;99.90;;;;;;5035112;28;19909;-86
2023/03/29 13:53:12;;;;;;;;;;;8.30;99.90;;;;;;5017308;28;19909;-85
2023/03/29 13:55:46;;;;;;;;;;;8.30;99.90;;;;;;5017281;28;19915;-86
2023/03/29 13:58:16;;;;;;;;;;;8.30;99.90;;;;;;5017324;28;19959;-86
2023/03/29 14:01:02;;;;;;;;;;;8.40;99.90;;;;;;5016923;28;19916;-85
2023/03/29 14:03:32;;;;;;;;;;;8.60;99.90;;;;;;5025376;28;20023;-85
2023/03/29 14:05:59;;;;;;;;;;;8.80;99.90;;;;;;5015778;28;20324;-85
2023/03/29 14:08:35;;;;;;;;;;;8.90;99.90;;;;;;5032645;28;19909;-84
2023/03/29 14:11:01;;;;;;;;;;;8.90;99.90;;;;;;5015553;28;19916;-84
2023/03/29 14:13:27;;;;;;;;;;;8.90;99.90;;;;;;5034683;28;20376;-85
2023/03/29 14:15:54;;;;;;;;;;;8.90;99.90;;;;;;5000669;28;19944;-85
2023/03/29 14:18:21;;;;;;;;;;;8.80;99.90;;;;;;5016481;28;19909;-85
2023/03/29 14:20:48;;;;;;;;;;;8.80;99.90;;;;;;5016831;28;19959;-85
2023/03/29 14:23:19;;;;;;;;;;;8.70;99.90;;;;;;5016626;28;19909;-85
2023/03/29 14:25:45;;;;;;;;;;;8.60;99.90;;;;;;5017271;28;19913;-85
2023/03/29 14:28:17;;;;;;;;;;;8.40;99.90;;;;;;5000426;28;20289;-85
2023/03/29 14:30:45;;;;;;;;;;;8.30;99.90;;;;;;5016818;28;19915;-84
2023/03/29 14:33:23;;;;;;;;;;;8.10;99.90;;;;;;5016856;28;19924;-84
2023/03/29 14:35:49;;;;;;;;;;;7.90;99.90;;;;;;5034168;28;20002;-84
2023/03/29 14:38:15;;;;;;;;;;;7.70;99.90;;;;;;5000563;28;20262;-84
2023/03/29 14:40:42;;;;;;;;;;;7.50;99.90;;;;;;5000504;28;20001;-84